sensor_id;sensor_type;location;lat;lon;timestamp;P1;durP1;ratioP1;P2;durP2;ratioP2
57573;SDS011;63722;48.858;21.906;2022-12-15T00:02:25;3.80;;;3.55;;
57573;SDS011;63722;48.858;21.906;2022-12-15T00:05:08;3.80;;;3.60;;
57573;SDS011;63722;48.858;21.906;2022-12-15T00:07:52;4.03;;;3.83;;
57573;SDS011;63722;48.858;21.906;2022-12-15T00:10:36;4.20;;;3.90;;
57573;SDS011;63722;48.858;21.906;2022-12-15T00:13:20;3.80;;;3.60;;
57573;SDS011;63722;48.858;21.906;2022-12-15T00:16:04;4.00;;;3.70;;
57573;SDS011;63722;48.858;21.906;2022-12-15T00:18:48;4.10;;;3.90;;
57573;SDS011;63722;48.858;21.906;2022-12-15T00:21:33;4.20;;;3.90;;
57573;SDS011;63722;48.858;21.906;2022-12-15T00:24:17;3.60;;;3.40;;
57573;SDS011;63722;48.858;21.906;2022-12-15T00:27:01;3.90;;;3.70;;
57573;SDS011;63722;48.858;21.906;2022-12-15T00:29:45;3.35;;;3.15;;
57573;SDS011;63722;48.858;21.906;2022-12-15T00:32:29;4.18;;;3.88;;
57573;SDS011;63722;48.858;21.906;2022-12-15T00:35:13;3.85;;;3.65;;
57573;SDS011;63722;48.858;21.906;2022-12-15T00:37:56;4.15;;;3.95;;
57573;SDS011;63722;48.858;21.906;2022-12-15T00:40:40;3.65;;;3.45;;
57573;SDS011;63722;48.858;21.906;2022-12-15T00:43:06;4.03;;;3.83;;
57573;SDS011;63722;48.858;21.906;2022-12-15T00:45:35;3.60;;;3.40;;
57573;SDS011;63722;48.858;21.906;2022-12-15T00:48:20;3.67;;;3.47;;
57573;SDS011;63722;48.858;21.906;2022-12-15T00:50:46;3.45;;;3.25;;
57573;SDS011;63722;48.858;21.906;2022-12-15T00:53:17;3.40;;;3.20;;
57573;SDS011;63722;48.858;21.906;2022-12-15T00:56:05;3.97;;;3.67;;
57573;SDS011;63722;48.858;21.906;2022-12-15T00:58:49;3.50;;;3.30;;
57573;SDS011;63722;48.858;21.906;2022-12-15T01:01:33;4.25;;;4.05;;
57573;SDS011;63722;48.858;21.906;2022-12-15T01:04:17;4.03;;;3.72;;
57573;SDS011;63722;48.858;21.906;2022-12-15T01:07:00;3.70;;;3.50;;
57573;SDS011;63722;48.858;21.906;2022-12-15T01:09:44;3.72;;;3.53;;
57573;SDS011;63722;48.858;21.906;2022-12-15T01:12:28;3.92;;;3.72;;
57573;SDS011;63722;48.858;21.906;2022-12-15T01:15:12;3.45;;;3.25;;
57573;SDS011;63722;48.858;21.906;2022-12-15T01:17:56;3.65;;;3.45;;
57573;SDS011;63722;48.858;21.906;2022-12-15T01:20:40;3.80;;;3.60;;
57573;SDS011;63722;48.858;21.906;2022-12-15T01:23:06;3.70;;;3.40;;
57573;SDS011;63722;48.858;21.906;2022-12-15T01:25:31;3.67;;;3.47;;
57573;SDS011;63722;48.858;21.906;2022-12-15T01:27:57;3.42;;;3.28;;
57573;SDS011;63722;48.858;21.906;2022-12-15T01:30:23;3.60;;;3.40;;
57573;SDS011;63722;48.858;21.906;2022-12-15T01:32:50;3.58;;;3.10;;
57573;SDS011;63722;48.858;21.906;2022-12-15T01:35:16;3.80;;;3.50;;
57573;SDS011;63722;48.858;21.906;2022-12-15T01:37:42;4.15;;;3.85;;
57573;SDS011;63722;48.858;21.906;2022-12-15T01:40:10;3.70;;;3.50;;
57573;SDS011;63722;48.858;21.906;2022-12-15T01:42:56;3.70;;;3.50;;
57573;SDS011;63722;48.858;21.906;2022-12-15T01:47:57;3.30;;;3.10;;
57573;SDS011;63722;48.858;21.906;2022-12-15T01:50:23;3.88;;;3.58;;
57573;SDS011;63722;48.858;21.906;2022-12-15T01:52:50;4.40;;;3.72;;
57573;SDS011;63722;48.858;21.906;2022-12-15T01:55:18;3.25;;;3.08;;
57573;SDS011;63722;48.858;21.906;2022-12-15T01:57:45;3.40;;;3.20;;
57573;SDS011;63722;48.858;21.906;2022-12-15T02:00:12;3.70;;;3.50;;
57573;SDS011;63722;48.858;21.906;2022-12-15T02:02:38;3.58;;;3.28;;
57573;SDS011;63722;48.858;21.906;2022-12-15T02:05:04;3.03;;;2.90;;
57573;SDS011;63722;48.858;21.906;2022-12-15T02:07:31;3.65;;;3.45;;
57573;SDS011;63722;48.858;21.906;2022-12-15T02:09:57;3.90;;;3.70;;
57573;SDS011;63722;48.858;21.906;2022-12-15T02:31:41;3.15;;;3.05;;
57573;SDS011;63722;48.858;21.906;2022-12-15T02:37:00;3.00;;;2.90;;
57573;SDS011;63722;48.858;21.906;2022-12-15T02:39:31;3.17;;;2.97;;
57573;SDS011;63722;48.858;21.906;2022-12-15T02:41:56;3.25;;;3.05;;
57573;SDS011;63722;48.858;21.906;2022-12-15T02:55:17;3.30;;;3.17;;
57573;SDS011;63722;48.858;21.906;2022-12-15T02:57:52;3.28;;;3.10;;
57573;SDS011;63722;48.858;21.906;2022-12-15T03:00:23;3.47;;;3.28;;
57573;SDS011;63722;48.858;21.906;2022-12-15T03:02:50;3.13;;;2.95;;
57573;SDS011;63722;48.858;21.906;2022-12-15T03:05:17;3.53;;;3.33;;
57573;SDS011;63722;48.858;21.906;2022-12-15T03:07:44;3.40;;;3.20;;
57573;SDS011;63722;48.858;21.906;2022-12-15T03:10:13;3.08;;;2.88;;
57573;SDS011;63722;48.858;21.906;2022-12-15T03:12:39;3.58;;;3.38;;
57573;SDS011;63722;48.858;21.906;2022-12-15T03:15:05;3.33;;;3.20;;
57573;SDS011;63722;48.858;21.906;2022-12-15T03:17:31;3.10;;;3.00;;
57573;SDS011;63722;48.858;21.906;2022-12-15T03:19:56;3.10;;;3.00;;
57573;SDS011;63722;48.858;21.906;2022-12-15T03:22:22;2.97;;;2.88;;
57573;SDS011;63722;48.858;21.906;2022-12-15T03:24:47;3.50;;;3.20;;
57573;SDS011;63722;48.858;21.906;2022-12-15T03:27:12;2.90;;;2.80;;
57573;SDS011;63722;48.858;21.906;2022-12-15T03:29:38;3.40;;;3.20;;
57573;SDS011;63722;48.858;21.906;2022-12-15T03:32:04;3.35;;;3.17;;
57573;SDS011;63722;48.858;21.906;2022-12-15T03:34:29;2.95;;;2.75;;
57573;SDS011;63722;48.858;21.906;2022-12-15T03:36:55;3.00;;;2.90;;
57573;SDS011;63722;48.858;21.906;2022-12-15T03:39:20;3.15;;;3.03;;
57573;SDS011;63722;48.858;21.906;2022-12-15T03:41:46;3.08;;;2.88;;
57573;SDS011;63722;48.858;21.906;2022-12-15T03:44:11;3.10;;;2.90;;
57573;SDS011;63722;48.858;21.906;2022-12-15T03:46:37;2.97;;;2.88;;
57573;SDS011;63722;48.858;21.906;2022-12-15T03:49:02;3.45;;;3.25;;
57573;SDS011;63722;48.858;21.906;2022-12-15T03:51:27;3.03;;;2.88;;
57573;SDS011;63722;48.858;21.906;2022-12-15T03:53:53;2.83;;;2.67;;
57573;SDS011;63722;48.858;21.906;2022-12-15T03:56:18;3.45;;;3.10;;
57573;SDS011;63722;48.858;21.906;2022-12-15T03:58:44;2.53;;;2.42;;
57573;SDS011;63722;48.858;21.906;2022-12-15T04:01:31;2.90;;;2.80;;
57573;SDS011;63722;48.858;21.906;2022-12-15T04:03:59;2.90;;;2.80;;
57573;SDS011;63722;48.858;21.906;2022-12-15T04:06:25;2.90;;;2.80;;
57573;SDS011;63722;48.858;21.906;2022-12-15T04:08:51;2.90;;;2.80;;
57573;SDS011;63722;48.858;21.906;2022-12-15T04:11:17;3.00;;;2.90;;
57573;SDS011;63722;48.858;21.906;2022-12-15T04:13:42;3.15;;;2.95;;
57573;SDS011;63722;48.858;21.906;2022-12-15T04:16:08;3.28;;;3.08;;
57573;SDS011;63722;48.858;21.906;2022-12-15T04:18:34;3.28;;;3.08;;
57573;SDS011;63722;48.858;21.906;2022-12-15T04:20:59;3.00;;;2.90;;
57573;SDS011;63722;48.858;21.906;2022-12-15T04:23:25;2.92;;;2.78;;
57573;SDS011;63722;48.858;21.906;2022-12-15T04:25:50;2.60;;;2.50;;
57573;SDS011;63722;48.858;21.906;2022-12-15T04:28:34;3.35;;;3.15;;
57573;SDS011;63722;48.858;21.906;2022-12-15T04:31:22;3.03;;;2.92;;
57573;SDS011;63722;48.858;21.906;2022-12-15T04:34:10;2.80;;;2.70;;
57573;SDS011;63722;48.858;21.906;2022-12-15T04:36:57;2.88;;;2.78;;
57573;SDS011;63722;48.858;21.906;2022-12-15T04:39:43;3.13;;;3.00;;
57573;SDS011;63722;48.858;21.906;2022-12-15T04:42:30;3.45;;;3.25;;
57573;SDS011;63722;48.858;21.906;2022-12-15T04:45:17;2.80;;;2.60;;
57573;SDS011;63722;48.858;21.906;2022-12-15T04:48:03;3.10;;;2.90;;
57573;SDS011;63722;48.858;21.906;2022-12-15T04:50:47;2.70;;;2.60;;
57573;SDS011;63722;48.858;21.906;2022-12-15T04:53:31;3.22;;;3.03;;
57573;SDS011;63722;48.858;21.906;2022-12-15T04:56:15;2.88;;;2.78;;
57573;SDS011;63722;48.858;21.906;2022-12-15T04:58:59;2.55;;;2.45;;
57573;SDS011;63722;48.858;21.906;2022-12-15T05:01:44;2.83;;;2.65;;
57573;SDS011;63722;48.858;21.906;2022-12-15T05:04:28;3.22;;;3.03;;
57573;SDS011;63722;48.858;21.906;2022-12-15T05:07:13;2.60;;;2.40;;
57573;SDS011;63722;48.858;21.906;2022-12-15T05:09:56;3.03;;;2.72;;
57573;SDS011;63722;48.858;21.906;2022-12-15T05:12:41;2.72;;;2.63;;
57573;SDS011;63722;48.858;21.906;2022-12-15T05:15:25;3.10;;;2.90;;
57573;SDS011;63722;48.858;21.906;2022-12-15T05:18:09;2.70;;;2.60;;
57573;SDS011;63722;48.858;21.906;2022-12-15T05:20:53;2.75;;;2.65;;
57573;SDS011;63722;48.858;21.906;2022-12-15T05:23:37;3.15;;;2.95;;
57573;SDS011;63722;48.858;21.906;2022-12-15T05:26:21;3.17;;;2.97;;
57573;SDS011;63722;48.858;21.906;2022-12-15T05:29:05;2.50;;;2.40;;
57573;SDS011;63722;48.858;21.906;2022-12-15T05:31:49;2.83;;;2.63;;
57573;SDS011;63722;48.858;21.906;2022-12-15T05:34:23;2.80;;;2.70;;
57573;SDS011;63722;48.858;21.906;2022-12-15T05:36:51;2.70;;;2.60;;
57573;SDS011;63722;48.858;21.906;2022-12-15T05:39:16;2.17;;;2.08;;
57573;SDS011;63722;48.858;21.906;2022-12-15T05:41:42;2.63;;;2.53;;
57573;SDS011;63722;48.858;21.906;2022-12-15T05:44:08;2.35;;;2.25;;
57573;SDS011;63722;48.858;21.906;2022-12-15T05:46:34;2.50;;;2.40;;
57573;SDS011;63722;48.858;21.906;2022-12-15T05:49:01;2.42;;;2.33;;
57573;SDS011;63722;48.858;21.906;2022-12-15T05:51:30;2.85;;;2.75;;
57573;SDS011;63722;48.858;21.906;2022-12-15T05:53:56;2.80;;;2.60;;
57573;SDS011;63722;48.858;21.906;2022-12-15T05:56:23;2.78;;;2.58;;
57573;SDS011;63722;48.858;21.906;2022-12-15T05:58:54;2.63;;;2.50;;
57573;SDS011;63722;48.858;21.906;2022-12-15T06:01:21;2.60;;;2.50;;
57573;SDS011;63722;48.858;21.906;2022-12-15T06:03:48;2.60;;;2.50;;
57573;SDS011;63722;48.858;21.906;2022-12-15T06:06:13;2.40;;;2.30;;
57573;SDS011;63722;48.858;21.906;2022-12-15T06:08:39;2.80;;;2.70;;
57573;SDS011;63722;48.858;21.906;2022-12-15T06:11:05;2.85;;;2.70;;
57573;SDS011;63722;48.858;21.906;2022-12-15T06:13:31;2.53;;;2.42;;
57573;SDS011;63722;48.858;21.906;2022-12-15T06:15:59;2.30;;;2.20;;
57573;SDS011;63722;48.858;21.906;2022-12-15T06:18:30;2.67;;;2.58;;
57573;SDS011;63722;48.858;21.906;2022-12-15T06:21:05;2.90;;;2.70;;
57573;SDS011;63722;48.858;21.906;2022-12-15T06:23:36;2.40;;;2.30;;
57573;SDS011;63722;48.858;21.906;2022-12-15T06:26:12;2.40;;;2.30;;
57573;SDS011;63722;48.858;21.906;2022-12-15T06:28:39;2.78;;;2.65;;
57573;SDS011;63722;48.858;21.906;2022-12-15T06:31:05;5.00;;;2.45;;
57573;SDS011;63722;48.858;21.906;2022-12-15T06:33:33;3.88;;;2.80;;
57573;SDS011;63722;48.858;21.906;2022-12-15T06:36:05;12.52;;;9.55;;
57573;SDS011;63722;48.858;21.906;2022-12-15T06:38:33;16.80;;;15.18;;
57573;SDS011;63722;48.858;21.906;2022-12-15T06:40:59;7.82;;;7.20;;
57573;SDS011;63722;48.858;21.906;2022-12-15T06:43:26;7.38;;;6.65;;
57573;SDS011;63722;48.858;21.906;2022-12-15T06:45:52;7.18;;;6.68;;
57573;SDS011;63722;48.858;21.906;2022-12-15T06:48:18;6.80;;;6.18;;
57573;SDS011;63722;48.858;21.906;2022-12-15T06:50:44;6.20;;;5.80;;
57573;SDS011;63722;48.858;21.906;2022-12-15T06:53:14;6.18;;;5.78;;
57573;SDS011;63722;48.858;21.906;2022-12-15T06:55:41;5.80;;;5.30;;
57573;SDS011;63722;48.858;21.906;2022-12-15T06:58:08;9.63;;;5.25;;
57573;SDS011;63722;48.858;21.906;2022-12-15T07:00:34;6.22;;;4.95;;
57573;SDS011;63722;48.858;21.906;2022-12-15T07:03:01;5.95;;;4.90;;
57573;SDS011;63722;48.858;21.906;2022-12-15T07:05:31;6.13;;;4.57;;
57573;SDS011;63722;48.858;21.906;2022-12-15T07:07:56;6.55;;;4.60;;
57573;SDS011;63722;48.858;21.906;2022-12-15T07:10:22;4.90;;;4.50;;
57573;SDS011;63722;48.858;21.906;2022-12-15T07:12:47;4.80;;;4.40;;
57573;SDS011;63722;48.858;21.906;2022-12-15T07:15:12;7.93;;;4.47;;
57573;SDS011;63722;48.858;21.906;2022-12-15T07:17:38;8.90;;;4.45;;
57573;SDS011;63722;48.858;21.906;2022-12-15T07:20:04;5.30;;;3.60;;
57573;SDS011;63722;48.858;21.906;2022-12-15T07:22:30;6.85;;;4.18;;
57573;SDS011;63722;48.858;21.906;2022-12-15T07:24:55;4.13;;;3.80;;
57573;SDS011;63722;48.858;21.906;2022-12-15T07:27:21;6.97;;;3.85;;
57573;SDS011;63722;48.858;21.906;2022-12-15T07:29:46;10.70;;;4.13;;
57573;SDS011;63722;48.858;21.906;2022-12-15T07:32:12;6.85;;;3.90;;
57573;SDS011;63722;48.858;21.906;2022-12-15T07:34:37;5.15;;;3.70;;
57573;SDS011;63722;48.858;21.906;2022-12-15T07:37:03;4.00;;;3.70;;
57573;SDS011;63722;48.858;21.906;2022-12-15T07:39:28;4.93;;;3.50;;
57573;SDS011;63722;48.858;21.906;2022-12-15T07:41:53;3.95;;;3.55;;
57573;SDS011;63722;48.858;21.906;2022-12-15T07:44:19;3.90;;;3.60;;
57573;SDS011;63722;48.858;21.906;2022-12-15T07:46:44;4.68;;;3.35;;
57573;SDS011;63722;48.858;21.906;2022-12-15T07:49:11;6.88;;;3.50;;
57573;SDS011;63722;48.858;21.906;2022-12-15T07:51:37;5.00;;;3.35;;
57573;SDS011;63722;48.858;21.906;2022-12-15T07:54:02;4.05;;;3.45;;
57573;SDS011;63722;48.858;21.906;2022-12-15T07:56:28;3.83;;;3.53;;
57573;SDS011;63722;48.858;21.906;2022-12-15T07:58:53;4.18;;;3.70;;
57573;SDS011;63722;48.858;21.906;2022-12-15T08:01:19;3.72;;;3.53;;
57573;SDS011;63722;48.858;21.906;2022-12-15T08:03:44;7.78;;;3.28;;
57573;SDS011;63722;48.858;21.906;2022-12-15T08:06:10;3.65;;;3.45;;
57573;SDS011;63722;48.858;21.906;2022-12-15T08:08:38;5.05;;;3.33;;
57573;SDS011;63722;48.858;21.906;2022-12-15T08:11:04;3.70;;;3.40;;
57573;SDS011;63722;48.858;21.906;2022-12-15T08:13:31;3.40;;;3.10;;
57573;SDS011;63722;48.858;21.906;2022-12-15T08:15:57;3.88;;;3.42;;
57573;SDS011;63722;48.858;21.906;2022-12-15T08:18:23;3.70;;;3.40;;
57573;SDS011;63722;48.858;21.906;2022-12-15T08:20:48;3.20;;;2.95;;
57573;SDS011;63722;48.858;21.906;2022-12-15T08:23:14;3.70;;;3.38;;
57573;SDS011;63722;48.858;21.906;2022-12-15T08:25:39;4.65;;;3.30;;
57573;SDS011;63722;48.858;21.906;2022-12-15T08:28:04;5.40;;;3.75;;
57573;SDS011;63722;48.858;21.906;2022-12-15T08:30:31;3.50;;;3.15;;
57573;SDS011;63722;48.858;21.906;2022-12-15T08:32:57;3.40;;;3.08;;
57573;SDS011;63722;48.858;21.906;2022-12-15T08:35:22;4.78;;;3.47;;
57573;SDS011;63722;48.858;21.906;2022-12-15T08:37:47;3.60;;;3.30;;
57573;SDS011;63722;48.858;21.906;2022-12-15T08:40:14;3.58;;;3.28;;
57573;SDS011;63722;48.858;21.906;2022-12-15T08:42:39;3.33;;;2.78;;
57573;SDS011;63722;48.858;21.906;2022-12-15T08:45:05;4.38;;;2.95;;
57573;SDS011;63722;48.858;21.906;2022-12-15T08:47:31;4.95;;;3.20;;
57573;SDS011;63722;48.858;21.906;2022-12-15T08:49:56;3.13;;;2.92;;
57573;SDS011;63722;48.858;21.906;2022-12-15T08:52:22;4.90;;;2.97;;
57573;SDS011;63722;48.858;21.906;2022-12-15T08:54:47;3.20;;;2.97;;
57573;SDS011;63722;48.858;21.906;2022-12-15T08:57:13;6.55;;;3.20;;
57573;SDS011;63722;48.858;21.906;2022-12-15T08:59:39;3.30;;;2.97;;
57573;SDS011;63722;48.858;21.906;2022-12-15T09:02:04;7.28;;;3.15;;
57573;SDS011;63722;48.858;21.906;2022-12-15T09:04:30;11.30;;;3.03;;
57573;SDS011;63722;48.858;21.906;2022-12-15T09:06:55;20.27;;;4.10;;
57573;SDS011;63722;48.858;21.906;2022-12-15T09:09:21;6.22;;;3.22;;
57573;SDS011;63722;48.858;21.906;2022-12-15T09:11:47;3.13;;;2.88;;
57573;SDS011;63722;48.858;21.906;2022-12-15T09:14:14;12.07;;;3.30;;
57573;SDS011;63722;48.858;21.906;2022-12-15T09:16:40;6.75;;;3.35;;
57573;SDS011;63722;48.858;21.906;2022-12-15T09:19:05;6.43;;;2.70;;
57573;SDS011;63722;48.858;21.906;2022-12-15T09:21:32;2.70;;;2.50;;
57573;SDS011;63722;48.858;21.906;2022-12-15T09:23:58;3.70;;;3.17;;
57573;SDS011;63722;48.858;21.906;2022-12-15T09:26:26;4.18;;;3.13;;
57573;SDS011;63722;48.858;21.906;2022-12-15T09:28:56;6.60;;;3.30;;
57573;SDS011;63722;48.858;21.906;2022-12-15T09:31:22;3.88;;;3.10;;
57573;SDS011;63722;48.858;21.906;2022-12-15T09:33:50;5.45;;;3.15;;
57573;SDS011;63722;48.858;21.906;2022-12-15T09:36:17;3.83;;;3.42;;
57573;SDS011;63722;48.858;21.906;2022-12-15T09:38:43;3.42;;;3.13;;
57573;SDS011;63722;48.858;21.906;2022-12-15T09:43:59;5.00;;;2.85;;
57573;SDS011;63722;48.858;21.906;2022-12-15T09:46:46;4.32;;;2.83;;
57573;SDS011;63722;48.858;21.906;2022-12-15T09:51:56;3.42;;;3.13;;
57573;SDS011;63722;48.858;21.906;2022-12-15T09:54:30;6.50;;;3.85;;
57573;SDS011;63722;48.858;21.906;2022-12-15T09:56:58;6.72;;;3.38;;
57573;SDS011;63722;48.858;21.906;2022-12-15T09:59:32;5.60;;;3.45;;
57573;SDS011;63722;48.858;21.906;2022-12-15T10:08:02;9.43;;;3.15;;
57573;SDS011;63722;48.858;21.906;2022-12-15T10:10:33;6.72;;;3.10;;
57573;SDS011;63722;48.858;21.906;2022-12-15T10:13:09;5.78;;;2.88;;
57573;SDS011;63722;48.858;21.906;2022-12-15T10:15:45;3.55;;;3.10;;
57573;SDS011;63722;48.858;21.906;2022-12-15T10:18:21;3.88;;;3.08;;
57573;SDS011;63722;48.858;21.906;2022-12-15T10:20:51;3.40;;;3.10;;
57573;SDS011;63722;48.858;21.906;2022-12-15T10:23:18;3.58;;;3.30;;
57573;SDS011;63722;48.858;21.906;2022-12-15T10:25:48;3.58;;;2.90;;
57573;SDS011;63722;48.858;21.906;2022-12-15T10:31:01;2.83;;;2.63;;
57573;SDS011;63722;48.858;21.906;2022-12-15T10:33:37;3.22;;;2.78;;
57573;SDS011;63722;48.858;21.906;2022-12-15T10:36:09;3.00;;;2.72;;
57573;SDS011;63722;48.858;21.906;2022-12-15T10:38:37;5.72;;;2.83;;
57573;SDS011;63722;48.858;21.906;2022-12-15T10:41:06;11.02;;;2.70;;
57573;SDS011;63722;48.858;21.906;2022-12-15T10:43:35;4.57;;;2.97;;
57573;SDS011;63722;48.858;21.906;2022-12-15T10:46:16;6.57;;;2.80;;
57573;SDS011;63722;48.858;21.906;2022-12-15T10:48:47;5.18;;;3.03;;
57573;SDS011;63722;48.858;21.906;2022-12-15T10:54:13;9.40;;;2.83;;
57573;SDS011;63722;48.858;21.906;2022-12-15T10:56:56;3.03;;;2.72;;
57573;SDS011;63722;48.858;21.906;2022-12-15T10:59:34;3.50;;;3.20;;
57573;SDS011;63722;48.858;21.906;2022-12-15T11:10:20;6.68;;;2.78;;
57573;SDS011;63722;48.858;21.906;2022-12-15T11:13:17;3.80;;;3.40;;
57573;SDS011;63722;48.858;21.906;2022-12-15T11:15:47;3.13;;;2.83;;
57573;SDS011;63722;48.858;21.906;2022-12-15T11:21:32;4.45;;;3.08;;
57573;SDS011;63722;48.858;21.906;2022-12-15T11:24:01;3.38;;;3.10;;
57573;SDS011;63722;48.858;21.906;2022-12-15T11:26:33;6.10;;;2.70;;
57573;SDS011;63722;48.858;21.906;2022-12-15T11:29:01;3.35;;;3.08;;
57573;SDS011;63722;48.858;21.906;2022-12-15T11:31:39;4.05;;;3.25;;
57573;SDS011;63722;48.858;21.906;2022-12-15T11:34:10;2.88;;;2.67;;
57573;SDS011;63722;48.858;21.906;2022-12-15T11:45:08;3.40;;;3.10;;
57573;SDS011;63722;48.858;21.906;2022-12-15T11:47:42;3.17;;;2.92;;
57573;SDS011;63722;48.858;21.906;2022-12-15T11:50:30;3.20;;;2.97;;
57573;SDS011;63722;48.858;21.906;2022-12-15T11:58:42;3.42;;;3.10;;
57573;SDS011;63722;48.858;21.906;2022-12-15T12:07:15;5.22;;;3.03;;
57573;SDS011;63722;48.858;21.906;2022-12-15T12:18:25;3.42;;;2.90;;
57573;SDS011;63722;48.858;21.906;2022-12-15T12:20:56;3.10;;;2.90;;
57573;SDS011;63722;48.858;21.906;2022-12-15T12:23:35;3.08;;;2.47;;
57573;SDS011;63722;48.858;21.906;2022-12-15T12:26:24;3.33;;;3.03;;
57573;SDS011;63722;48.858;21.906;2022-12-15T12:31:48;4.03;;;3.03;;
57573;SDS011;63722;48.858;21.906;2022-12-15T12:34:21;3.50;;;3.20;;
57573;SDS011;63722;48.858;21.906;2022-12-15T12:36:53;3.78;;;3.22;;
57573;SDS011;63722;48.858;21.906;2022-12-15T12:39:28;3.40;;;3.20;;
57573;SDS011;63722;48.858;21.906;2022-12-15T12:42:02;3.17;;;2.95;;
57573;SDS011;63722;48.858;21.906;2022-12-15T12:44:35;8.38;;;3.00;;
57573;SDS011;63722;48.858;21.906;2022-12-15T12:47:06;3.85;;;3.25;;
57573;SDS011;63722;48.858;21.906;2022-12-15T12:49:44;16.88;;;3.47;;
57573;SDS011;63722;48.858;21.906;2022-12-15T12:52:24;3.92;;;3.63;;
57573;SDS011;63722;48.858;21.906;2022-12-15T12:55:39;3.78;;;3.20;;
57573;SDS011;63722;48.858;21.906;2022-12-15T12:58:00;3.35;;;3.00;;
57573;SDS011;63722;48.858;21.906;2022-12-15T13:00:27;3.47;;;3.28;;
57573;SDS011;63722;48.858;21.906;2022-12-15T13:05:45;4.88;;;3.20;;
57573;SDS011;63722;48.858;21.906;2022-12-15T13:10:45;3.90;;;3.60;;
57573;SDS011;63722;48.858;21.906;2022-12-15T13:15:46;3.58;;;3.13;;
57573;SDS011;63722;48.858;21.906;2022-12-15T13:18:14;4.10;;;3.20;;
57573;SDS011;63722;48.858;21.906;2022-12-15T13:20:40;3.72;;;3.50;;
57573;SDS011;63722;48.858;21.906;2022-12-15T13:36:09;3.88;;;3.58;;
57573;SDS011;63722;48.858;21.906;2022-12-15T13:38:51;4.85;;;3.22;;
57573;SDS011;63722;48.858;21.906;2022-12-15T13:41:22;4.15;;;3.40;;
57573;SDS011;63722;48.858;21.906;2022-12-15T13:43:47;2.83;;;2.63;;
57573;SDS011;63722;48.858;21.906;2022-12-15T13:46:19;3.78;;;3.38;;
57573;SDS011;63722;48.858;21.906;2022-12-15T13:49:35;3.70;;;3.30;;
57573;SDS011;63722;48.858;21.906;2022-12-15T13:52:10;4.93;;;3.10;;
57573;SDS011;63722;48.858;21.906;2022-12-15T13:54:46;6.97;;;3.37;;
57573;SDS011;63722;48.858;21.906;2022-12-15T13:57:22;3.40;;;3.03;;
57573;SDS011;63722;48.858;21.906;2022-12-15T13:59:50;3.35;;;3.13;;
57573;SDS011;63722;48.858;21.906;2022-12-15T14:07:45;8.95;;;3.72;;
57573;SDS011;63722;48.858;21.906;2022-12-15T14:10:18;6.88;;;4.03;;
57573;SDS011;63722;48.858;21.906;2022-12-15T14:12:47;4.70;;;3.50;;
57573;SDS011;63722;48.858;21.906;2022-12-15T14:15:15;6.85;;;3.63;;
57573;SDS011;63722;48.858;21.906;2022-12-15T14:17:49;3.38;;;3.15;;
57573;SDS011;63722;48.858;21.906;2022-12-15T14:20:16;4.40;;;4.00;;
57573;SDS011;63722;48.858;21.906;2022-12-15T14:22:45;4.93;;;3.92;;
57573;SDS011;63722;48.858;21.906;2022-12-15T14:25:12;4.03;;;3.72;;
57573;SDS011;63722;48.858;21.906;2022-12-15T14:27:40;6.03;;;3.42;;
57573;SDS011;63722;48.858;21.906;2022-12-15T14:32:56;3.60;;;3.35;;
57573;SDS011;63722;48.858;21.906;2022-12-15T14:37:55;4.95;;;3.40;;
57573;SDS011;63722;48.858;21.906;2022-12-15T14:40:23;3.70;;;3.40;;
57573;SDS011;63722;48.858;21.906;2022-12-15T14:42:50;4.63;;;4.15;;
57573;SDS011;63722;48.858;21.906;2022-12-15T14:45:18;4.72;;;3.92;;
57573;SDS011;63722;48.858;21.906;2022-12-15T14:47:53;4.03;;;3.72;;
57573;SDS011;63722;48.858;21.906;2022-12-15T14:50:21;4.63;;;3.70;;
57573;SDS011;63722;48.858;21.906;2022-12-15T14:52:51;5.28;;;3.70;;
57573;SDS011;63722;48.858;21.906;2022-12-15T14:55:29;3.78;;;3.47;;
57573;SDS011;63722;48.858;21.906;2022-12-15T14:57:54;4.30;;;3.90;;
57573;SDS011;63722;48.858;21.906;2022-12-15T15:03:07;4.07;;;3.70;;
57573;SDS011;63722;48.858;21.906;2022-12-15T15:05:47;4.00;;;3.70;;
57573;SDS011;63722;48.858;21.906;2022-12-15T15:08:34;8.00;;;3.65;;
57573;SDS011;63722;48.858;21.906;2022-12-15T15:13:55;10.68;;;4.03;;
57573;SDS011;63722;48.858;21.906;2022-12-15T15:16:26;3.50;;;3.30;;
57573;SDS011;63722;48.858;21.906;2022-12-15T15:18:52;4.35;;;3.80;;
57573;SDS011;63722;48.858;21.906;2022-12-15T15:21:21;3.80;;;3.60;;
57573;SDS011;63722;48.858;21.906;2022-12-15T15:23:58;4.18;;;3.88;;
57573;SDS011;63722;48.858;21.906;2022-12-15T15:26:28;5.00;;;3.53;;
57573;SDS011;63722;48.858;21.906;2022-12-15T15:28:55;4.32;;;3.90;;
57573;SDS011;63722;48.858;21.906;2022-12-15T15:33:46;8.90;;;4.00;;
57573;SDS011;63722;48.858;21.906;2022-12-15T15:36:11;4.75;;;3.80;;
57573;SDS011;63722;48.858;21.906;2022-12-15T15:38:38;6.13;;;3.92;;
57573;SDS011;63722;48.858;21.906;2022-12-15T15:43:44;4.10;;;3.90;;
57573;SDS011;63722;48.858;21.906;2022-12-15T15:46:23;3.90;;;3.60;;
57573;SDS011;63722;48.858;21.906;2022-12-15T15:48:52;4.57;;;4.18;;
57573;SDS011;63722;48.858;21.906;2022-12-15T15:51:20;4.13;;;3.75;;
57573;SDS011;63722;48.858;21.906;2022-12-15T15:53:47;5.95;;;3.95;;
57573;SDS011;63722;48.858;21.906;2022-12-15T15:56:13;6.20;;;4.00;;
57573;SDS011;63722;48.858;21.906;2022-12-15T15:58:40;4.47;;;4.18;;
57573;SDS011;63722;48.858;21.906;2022-12-15T16:01:10;6.20;;;3.80;;
57573;SDS011;63722;48.858;21.906;2022-12-15T16:03:36;4.22;;;3.92;;
57573;SDS011;63722;48.858;21.906;2022-12-15T16:06:02;4.15;;;3.85;;
57573;SDS011;63722;48.858;21.906;2022-12-15T16:08:34;4.60;;;4.30;;
57573;SDS011;63722;48.858;21.906;2022-12-15T16:11:00;4.30;;;4.00;;
57573;SDS011;63722;48.858;21.906;2022-12-15T16:13:26;4.30;;;4.10;;
57573;SDS011;63722;48.858;21.906;2022-12-15T16:15:52;4.20;;;3.90;;
57573;SDS011;63722;48.858;21.906;2022-12-15T16:18:18;4.25;;;3.95;;
57573;SDS011;63722;48.858;21.906;2022-12-15T16:20:45;4.78;;;3.92;;
57573;SDS011;63722;48.858;21.906;2022-12-15T16:23:17;4.32;;;4.00;;
57573;SDS011;63722;48.858;21.906;2022-12-15T16:25:50;4.43;;;4.03;;
57573;SDS011;63722;48.858;21.906;2022-12-15T16:28:18;4.88;;;4.25;;
57573;SDS011;63722;48.858;21.906;2022-12-15T16:30:48;4.65;;;4.15;;
57573;SDS011;63722;48.858;21.906;2022-12-15T16:33:15;4.32;;;4.03;;
57573;SDS011;63722;48.858;21.906;2022-12-15T16:35:41;5.70;;;4.10;;
57573;SDS011;63722;48.858;21.906;2022-12-15T16:40:55;4.18;;;3.88;;
57573;SDS011;63722;48.858;21.906;2022-12-15T16:43:23;4.05;;;3.85;;
57573;SDS011;63722;48.858;21.906;2022-12-15T16:45:53;4.70;;;4.35;;
57573;SDS011;63722;48.858;21.906;2022-12-15T16:48:20;4.20;;;3.92;;
57573;SDS011;63722;48.858;21.906;2022-12-15T16:50:49;4.47;;;4.18;;
57573;SDS011;63722;48.858;21.906;2022-12-15T16:53:21;5.45;;;4.03;;
57573;SDS011;63722;48.858;21.906;2022-12-15T16:55:53;4.38;;;4.05;;
57573;SDS011;63722;48.858;21.906;2022-12-15T16:58:20;5.47;;;4.97;;
57573;SDS011;63722;48.858;21.906;2022-12-15T17:00:46;4.50;;;4.20;;
57573;SDS011;63722;48.858;21.906;2022-12-15T17:03:15;4.57;;;4.18;;
57573;SDS011;63722;48.858;21.906;2022-12-15T17:05:43;4.25;;;3.97;;
57573;SDS011;63722;48.858;21.906;2022-12-15T17:08:14;4.28;;;3.97;;
57573;SDS011;63722;48.858;21.906;2022-12-15T17:10:46;5.13;;;4.55;;
57573;SDS011;63722;48.858;21.906;2022-12-15T17:15:41;6.00;;;4.50;;
57573;SDS011;63722;48.858;21.906;2022-12-15T17:18:06;4.43;;;4.13;;
57573;SDS011;63722;48.858;21.906;2022-12-15T17:20:36;4.43;;;4.22;;